Time;durP1;ratioP1;P1;durP2;ratioP2;P2;SDS_P1;SDS_P2;PMS_P1;PMS_P2;Temp;Humidity;BMP_temperature;BMP_pressure;BME280_temperature;BME280_humidity;BME280_pressure;Samples;Min_cycle;Max_cycle;Signal;HPM_P1;HPM_P2
2023/04/17 00:01:04;;;;;;;15.30;9.80;;;;;15.20;102449.00;;;;5065967;28;20509;-75
2023/04/17 00:03:32;;;;;;;18.77;11.43;;;;;15.20;102447.00;;;;5065724;28;20222;-75
2023/04/17 00:06:00;;;;;;;16.40;10.70;;;;;15.20;102442.00;;;;5064232;28;20203;-75
2023/04/17 00:08:27;;;;;;;14.68;10.48;;;;;15.10;102444.00;;;;5067811;28;20289;-75
2023/04/17 00:10:55;;;;;;;14.35;10.38;;;;;15.20;102442.00;;;;5064135;28;20210;-75
2023/04/17 00:13:22;;;;;;;16.55;10.57;;;;;15.10;102450.00;;;;5066876;28;20229;-75
2023/04/17 00:15:49;;;;;;;15.50;9.50;;;;;15.10;102443.00;;;;5066550;28;20222;-75
2023/04/17 00:18:16;;;;;;;14.88;10.60;;;;;15.10;102438.00;;;;5067196;28;20210;-75
2023/04/17 00:20:45;;;;;;;14.15;9.85;;;;;15.10;102441.00;;;;5066342;28;20227;-75
2023/04/17 00:23:12;;;;;;;16.77;10.40;;;;;15.10;102443.00;;;;5064286;28;20215;-75
2023/04/17 00:25:40;;;;;;;14.48;10.07;;;;;15.10;102443.00;;;;5047420;28;20212;-75
2023/04/17 00:28:07;;;;;;;14.05;10.18;;;;;15.10;102436.00;;;;5052434;28;20195;-75
2023/04/17 00:30:34;;;;;;;19.48;10.65;;;;;15.10;102445.00;;;;5066905;28;20226;-75
2023/04/17 00:33:01;;;;;;;14.90;10.23;;;;;15.10;102451.00;;;;5064314;28;20249;-75
2023/04/17 00:35:29;;;;;;;13.85;9.02;;;;;15.10;102447.00;;;;5054207;28;20204;-75
2023/04/17 00:37:57;;;;;;;16.23;9.98;;;;;15.10;102450.00;;;;5057583;28;20206;-75
2023/04/17 00:40:25;;;;;;;14.13;9.70;;;;;15.10;102442.00;;;;5052729;28;20192;-75
2023/04/17 00:42:55;;;;;;;19.60;11.40;;;;;15.00;102440.00;;;;5061982;28;20203;-75
2023/04/17 00:45:22;;;;;;;15.48;10.45;;;;;15.00;102449.00;;;;5062757;28;20211;-75
2023/04/17 00:47:51;;;;;;;16.52;10.23;;;;;15.00;102439.00;;;;5070992;28;20202;-75
2023/04/17 00:50:19;;;;;;;16.40;10.88;;;;;15.00;102433.00;;;;5071003;28;20684;-75
2023/04/17 00:52:47;;;;;;;18.88;9.93;;;;;15.00;102447.00;;;;5066488;28;20217;-75
2023/04/17 00:55:15;;;;;;;18.00;11.25;;;;;15.00;102436.00;;;;5063835;28;20207;-75
2023/04/17 00:57:43;;;;;;;16.50;10.00;;;;;15.00;102433.00;;;;5061258;28;20215;-75
2023/04/17 01:00:12;;;;;;;19.20;11.07;;;;;15.00;102423.00;;;;5053018;28;20202;-75
2023/04/17 01:02:39;;;;;;;13.70;10.45;;;;;15.10;102435.00;;;;5060203;28;20719;-75
2023/04/17 01:05:07;;;;;;;15.05;9.90;;;;;15.10;102433.00;;;;5051971;28;20195;-75
2023/04/17 01:07:34;;;;;;;17.23;10.88;;;;;15.10;102440.00;;;;5051083;28;20684;-75
2023/04/17 01:10:02;;;;;;;21.63;12.85;;;;;15.10;102430.00;;;;5060097;28;20203;-75
2023/04/17 01:12:31;;;;;;;17.27;10.30;;;;;15.10;102435.00;;;;5070534;28;20195;-75
2023/04/17 01:14:58;;;;;;;17.25;10.52;;;;;15.00;102431.00;;;;5069064;28;20703;-75
2023/04/17 01:17:26;;;;;;;16.73;10.40;;;;;15.00;102437.00;;;;5070975;28;20230;-75
2023/04/17 01:19:54;;;;;;;14.05;10.05;;;;;15.10;102429.00;;;;5057748;28;20214;-75
2023/04/17 01:22:21;;;;;;;14.05;10.27;;;;;15.10;102437.00;;;;5050308;28;20227;-75
2023/04/17 01:24:50;;;;;;;16.23;10.32;;;;;15.00;102441.00;;;;5050761;28;20191;-75
2023/04/17 01:27:21;;;;;;;16.08;10.93;;;;;15.00;102435.00;;;;5052263;28;20206;-75
2023/04/17 01:29:48;;;;;;;15.25;9.68;;;;;15.00;102435.00;;;;5051031;28;20341;-75
2023/04/17 01:32:16;;;;;;;13.80;9.80;;;;;15.10;102439.00;;;;5067679;28;20195;-76
2023/04/17 01:34:43;;;;;;;18.15;11.18;;;;;15.10;102443.00;;;;5056382;28;20774;-76
2023/04/17 01:37:10;;;;;;;18.05;10.02;;;;;15.00;102442.00;;;;5061841;28;20188;-76
2023/04/17 01:39:38;;;;;;;16.70;10.13;;;;;15.00;102443.00;;;;5052167;28;20200;-76
2023/04/17 01:42:07;;;;;;;15.35;10.07;;;;;15.00;102444.00;;;;5056811;28;20604;-76
2023/04/17 01:44:36;;;;;;;16.20;10.27;;;;;15.00;102438.00;;;;5063241;28;20210;-76
2023/04/17 01:47:03;;;;;;;15.85;10.57;;;;;15.00;102447.00;;;;5050338;28;20231;-76
2023/04/17 01:49:31;;;;;;;13.77;9.52;;;;;15.00;102446.00;;;;5064322;28;20576;-76
2023/04/17 01:51:58;;;;;;;14.73;9.90;;;;;15.00;102448.00;;;;5069635;28;20199;-75
2023/04/17 01:54:25;;;;;;;14.85;10.05;;;;;15.00;102445.00;;;;5055526;28;20737;-76
2023/04/17 01:56:53;;;;;;;13.55;8.52;;;;;15.00;102451.00;;;;5052149;28;20203;-76
2023/04/17 01:59:21;;;;;;;13.32;9.27;;;;;14.90;102455.00;;;;5051344;28;20200;-76
2023/04/17 02:01:50;;;;;;;12.90;9.05;;;;;14.90;102452.00;;;;5055347;28;20228;-76
2023/04/17 02:04:17;;;;;;;13.68;8.02;;;;;14.90;102454.00;;;;5049765;28;20657;-76
2023/04/17 02:06:44;;;;;;;11.90;8.38;;;;;14.90;102453.00;;;;5062956;28;20196;-76
2023/04/17 02:09:11;;;;;;;12.10;8.05;;;;;14.90;102453.00;;;;5053474;28;20191;-76
2023/04/17 02:11:39;;;;;;;11.18;8.27;;;;;14.90;102455.00;;;;5050549;28;20199;-76
2023/04/17 02:14:06;;;;;;;11.20;7.88;;;;;14.90;102458.00;;;;5050347;28;20219;-76
2023/04/17 02:16:36;;;;;;;12.90;8.43;;;;;14.90;102455.00;;;;5057231;28;20731;-76
2023/04/17 02:19:04;;;;;;;12.85;7.93;;;;;14.90;102446.00;;;;5059060;28;20206;-76
2023/04/17 02:21:31;;;;;;;11.32;7.63;;;;;14.90;102444.00;;;;5051567;28;20231;-76
2023/04/17 02:23:58;;;;;;;11.65;8.05;;;;;14.90;102442.00;;;;5066748;28;20213;-76
2023/04/17 02:26:25;;;;;;;10.40;6.60;;;;;14.90;102457.00;;;;5053891;28;20203;-76
2023/04/17 02:28:53;;;;;;;12.25;8.25;;;;;14.90;102451.00;;;;5052502;28;20203;-76
2023/04/17 02:31:20;;;;;;;12.48;8.23;;;;;14.90;102447.00;;;;5062252;28;20200;-76
2023/04/17 02:33:48;;;;;;;12.13;8.02;;;;;14.80;102446.00;;;;5054644;28;20211;-76
2023/04/17 02:36:16;;;;;;;10.10;7.05;;;;;14.80;102446.00;;;;5056165;28;20680;-76
2023/04/17 02:38:43;;;;;;;11.45;8.27;;;;;14.80;102444.00;;;;5053988;28;20199;-76
2023/04/17 02:41:10;;;;;;;12.43;8.20;;;;;14.80;102444.00;;;;5060092;28;20199;-76
2023/04/17 02:43:37;;;;;;;10.23;6.72;;;;;14.80;102439.00;;;;5058628;28;20187;-76
2023/04/17 02:46:05;;;;;;;11.15;7.90;;;;;14.80;102442.00;;;;5056089;28;20657;-76
2023/04/17 02:48:32;;;;;;;9.35;6.75;;;;;14.80;102444.00;;;;5057410;28;20196;-75
2023/04/17 02:51:01;;;;;;;10.82;7.63;;;;;14.70;102441.00;;;;5053312;28;20684;-76
2023/04/17 02:53:28;;;;;;;11.30;7.45;;;;;14.80;102442.00;;;;5048130;28;20681;-76
2023/04/17 02:55:55;;;;;;;12.43;8.23;;;;;14.80;102440.00;;;;5054195;28;20555;-76
2023/04/17 02:58:23;;;;;;;14.73;8.20;;;;;14.80;102439.00;;;;5053781;28;20650;-76
2023/04/17 03:00:50;;;;;;;9.48;7.43;;;;;14.70;102438.00;;;;5062750;28;20199;-76
2023/04/17 03:03:17;;;;;;;12.13;8.38;;;;;14.70;102439.00;;;;5066237;28;20588;-76
2023/04/17 03:05:44;;;;;;;12.73;8.45;;;;;14.70;102436.00;;;;5064461;28;20664;-76
2023/04/17 03:08:13;;;;;;;10.98;7.85;;;;;14.70;102436.00;;;;5054565;28;20198;-76
2023/04/17 03:10:41;;;;;;;11.55;7.68;;;;;14.70;102439.00;;;;5053112;28;20207;-76
2023/04/17 03:13:08;;;;;;;11.02;7.78;;;;;14.70;102446.00;;;;5060499;28;20211;-76
2023/04/17 03:15:36;;;;;;;13.05;8.15;;;;;14.70;102443.00;;;;5051763;28;20196;-76
2023/04/17 03:18:03;;;;;;;13.65;7.63;;;;;14.70;102452.00;;;;5061615;28;20653;-76
2023/04/17 03:20:30;;;;;;;13.70;8.02;;;;;14.70;102452.00;;;;5049732;28;20206;-75
2023/04/17 03:22:57;;;;;;;11.57;8.95;;;;;14.70;102448.00;;;;5048430;28;20584;-76
2023/04/17 03:25:26;;;;;;;10.27;7.80;;;;;14.70;102443.00;;;;5048688;28;20584;-75
2023/04/17 03:27:55;;;;;;;11.20;8.48;;;;;14.70;102447.00;;;;5048261;28;20192;-75
2023/04/17 03:30:22;;;;;;;11.57;8.93;;;;;14.70;102442.00;;;;5049472;28;20227;-75
2023/04/17 03:32:50;;;;;;;12.98;8.18;;;;;14.70;102442.00;;;;5055597;28;20723;-75
2023/04/17 03:35:17;;;;;;;11.02;7.70;;;;;14.60;102440.00;;;;5065141;28;20233;-75
2023/04/17 03:37:44;;;;;;;13.68;8.90;;;;;14.60;102442.00;;;;5047976;28;20203;-75
2023/04/17 03:40:12;;;;;;;12.68;8.45;;;;;14.60;102439.00;;;;5055847;28;20192;-76
2023/04/17 03:42:41;;;;;;;13.05;8.13;;;;;14.60;102443.00;;;;5049174;28;20219;-76
2023/04/17 03:45:09;;;;;;;11.27;8.27;;;;;14.60;102441.00;;;;5059628;28;20195;-76
2023/04/17 03:47:37;;;;;;;12.52;8.07;;;;;14.60;102454.00;;;;5067547;28;20210;-76
2023/04/17 03:50:05;;;;;;;11.85;8.50;;;;;14.60;102454.00;;;;5068184;28;20710;-75
2023/04/17 03:52:32;;;;;;;12.60;9.43;;;;;14.60;102445.00;;;;5059800;28;20192;-75
2023/04/17 03:54:59;;;;;;;13.02;9.02;;;;;14.60;102446.00;;;;5048214;28;20195;-75
2023/04/17 03:57:26;;;;;;;12.45;8.38;;;;;14.50;102450.00;;;;5048306;28;20206;-75
2023/04/17 03:59:55;;;;;;;13.60;9.82;;;;;14.50;102449.00;;;;5058834;28;20199;-75
2023/04/17 04:02:22;;;;;;;13.13;8.63;;;;;14.50;102453.00;;;;5057786;28;20223;-75
2023/04/17 04:04:50;;;;;;;13.45;8.80;;;;;14.50;102446.00;;;;5058139;28;20195;-75
2023/04/17 04:07:17;;;;;;;13.50;9.05;;;;;14.50;102445.00;;;;5060311;28;20244;-76
2023/04/17 04:09:45;;;;;;;12.55;8.25;;;;;14.50;102447.00;;;;5065924;28;20215;-76
2023/04/17 04:12:12;;;;;;;12.55;8.73;;;;;14.50;102453.00;;;;5061289;28;20207;-75
2023/04/17 04:14:39;;;;;;;13.27;8.52;;;;;14.40;102442.00;;;;5060336;28;20309;-76
2023/04/17 04:17:08;;;;;;;13.15;8.57;;;;;14.40;102447.00;;;;5059454;28;20210;-76
2023/04/17 04:19:35;;;;;;;12.43;8.70;;;;;14.40;102449.00;;;;5068152;28;20203;-76
2023/04/17 04:22:03;;;;;;;13.63;8.95;;;;;14.40;102457.00;;;;5052660;28;20227;-76
2023/04/17 04:24:32;;;;;;;13.65;8.80;;;;;14.40;102451.00;;;;5052553;28;20199;-75
2023/04/17 04:27:03;;;;;;;12.98;9.30;;;;;14.40;102454.00;;;;5065369;28;20524;-76
2023/04/17 04:29:30;;;;;;;14.23;9.15;;;;;14.40;102456.00;;;;5070405;28;20223;-76
2023/04/17 04:31:58;;;;;;;13.77;9.57;;;;;14.40;102453.00;;;;5056728;28;20202;-76
2023/04/17 04:34:28;;;;;;;13.20;9.05;;;;;14.40;102452.00;;;;5069886;28;20201;-75
2023/04/17 04:36:56;;;;;;;15.23;10.43;;;;;14.50;102462.00;;;;5060980;28;20255;-75
2023/04/17 04:39:23;;;;;;;12.02;8.77;;;;;14.40;102458.00;;;;5063738;28;20195;-76
2023/04/17 04:41:51;;;;;;;13.60;9.43;;;;;14.50;102453.00;;;;5058720;28;20207;-75
2023/04/17 04:44:19;;;;;;;13.13;8.55;;;;;14.40;102458.00;;;;5067911;28;20574;-76
2023/04/17 04:46:47;;;;;;;13.48;9.48;;;;;14.40;102459.00;;;;5066606;28;20265;-76
2023/04/17 04:49:14;;;;;;;12.77;9.00;;;;;14.40;102458.00;;;;5053117;28;20751;-76
2023/04/17 04:51:43;;;;;;;13.57;9.13;;;;;14.40;102463.00;;;;5058150;28;20568;-76
2023/04/17 04:54:10;;;;;;;12.00;9.15;;;;;14.50;102462.00;;;;5051277;28;20216;-75
2023/04/17 04:56:38;;;;;;;14.10;9.55;;;;;14.40;102468.00;;;;5054600;28;20206;-76
2023/04/17 04:59:06;;;;;;;16.95;9.73;;;;;14.50;102469.00;;;;5056104;28;20199;-76
2023/04/17 05:01:34;;;;;;;12.80;8.77;;;;;14.50;102472.00;;;;5060872;28;20191;-76
2023/04/17 05:04:01;;;;;;;12.90;8.98;;;;;14.50;102469.00;;;;5069234;28;20231;-75
2023/04/17 05:06:30;;;;;;;14.43;9.68;;;;;14.50;102471.00;;;;5069472;28;20195;-76
2023/04/17 05:08:58;;;;;;;12.88;8.13;;;;;14.40;102476.00;;;;5068805;28;20191;-76
2023/04/17 05:11:25;;;;;;;14.40;9.73;;;;;14.50;102471.00;;;;5050907;28;20207;-76
2023/04/17 05:13:53;;;;;;;16.17;8.48;;;;;14.50;102478.00;;;;5060163;28;20202;-76
2023/04/17 05:16:20;;;;;;;13.48;9.68;;;;;14.50;102481.00;;;;5060725;28;20224;-77
2023/04/17 05:18:50;;;;;;;19.25;9.55;;;;;14.50;102482.00;;;;5062849;28;20195;-76
2023/04/17 05:21:17;;;;;;;12.65;9.18;;;;;14.50;102483.00;;;;5062024;28;20204;-76
2023/04/17 05:23:45;;;;;;;13.85;9.82;;;;;14.50;102481.00;;;;5059837;28;20701;-76
2023/04/17 05:26:14;;;;;;;12.05;8.68;;;;;14.50;102486.00;;;;5052311;28;20196;-76
2023/04/17 05:28:43;;;;;;;13.02;8.90;;;;;14.50;102486.00;;;;5067537;28;20687;-76
2023/04/17 05:31:11;;;;;;;14.32;8.77;;;;;14.50;102494.00;;;;5066154;28;20213;-77
2023/04/17 05:33:38;;;;;;;13.32;8.60;;;;;14.50;102489.00;;;;5054403;28;20227;-77
2023/04/17 05:36:06;;;;;;;14.20;9.13;;;;;14.50;102488.00;;;;5050518;28;20195;-76
2023/04/17 05:38:33;;;;;;;14.05;9.65;;;;;14.50;102490.00;;;;5061094;28;20282;-77
2023/04/17 05:41:01;;;;;;;14.38;9.57;;;;;14.50;102493.00;;;;5057176;28;20211;-77
2023/04/17 05:43:30;;;;;;;16.55;9.63;;;;;14.50;102494.00;;;;5050767;28;20288;-77
2023/04/17 05:45:57;;;;;;;14.65;9.93;;;;;14.50;102489.00;;;;5057928;28;20207;-77
2023/04/17 05:48:24;;;;;;;18.75;11.30;;;;;14.50;102490.00;;;;5065595;28;20203;-76
2023/04/17 05:50:53;;;;;;;16.27;10.93;;;;;14.50;102493.00;;;;5052310;28;20199;-77
2023/04/17 05:53:20;;;;;;;13.95;10.00;;;;;14.50;102488.00;;;;5051370;28;20210;-76
2023/04/17 05:55:47;;;;;;;15.13;10.25;;;;;14.50;102493.00;;;;5054719;28;20207;-77
2023/04/17 05:58:15;;;;;;;19.02;10.20;;;;;14.50;102494.00;;;;5058148;28;20191;-76
2023/04/17 06:00:44;;;;;;;14.20;9.88;;;;;14.50;102503.00;;;;5066675;28;20574;-76
2023/04/17 06:03:11;;;;;;;13.75;9.57;;;;;14.50;102502.00;;;;5060866;28;20242;-77
2023/04/17 06:05:39;;;;;;;15.38;11.43;;;;;14.50;102496.00;;;;5053060;28;20285;-77
2023/04/17 06:08:06;;;;;;;17.33;11.00;;;;;14.50;102504.00;;;;5061286;28;20203;-76
2023/04/17 06:10:34;;;;;;;13.35;10.00;;;;;14.60;102505.00;;;;5069273;28;20195;-76
2023/04/17 06:13:01;;;;;;;17.10;10.60;;;;;14.60;102503.00;;;;5063193;28;20195;-76
2023/04/17 06:15:28;;;;;;;13.02;9.23;;;;;14.60;102511.00;;;;5064405;28;20203;-77
2023/04/17 06:17:57;;;;;;;14.27;11.20;;;;;14.60;102507.00;;;;5054605;28;20218;-76
2023/04/17 06:20:24;;;;;;;16.42;10.02;;;;;14.70;102517.00;;;;5061693;28;20199;-76
2023/04/17 06:22:52;;;;;;;14.50;10.43;;;;;14.70;102513.00;;;;5062993;28;20314;-76
2023/04/17 06:25:19;;;;;;;14.70;9.73;;;;;14.70;102520.00;;;;5064054;28;20195;-76
2023/04/17 06:27:46;;;;;;;13.35;9.98;;;;;14.80;102522.00;;;;5062149;28;20200;-76
2023/04/17 06:30:14;;;;;;;16.80;10.32;;;;;14.80;102529.00;;;;5057301;28;20226;-76
2023/04/17 06:32:42;;;;;;;13.77;9.43;;;;;14.80;102521.00;;;;5060043;28;20210;-76
2023/04/17 06:35:11;;;;;;;13.80;9.65;;;;;14.80;102526.00;;;;5050845;28;20249;-76
2023/04/17 06:37:39;;;;;;;13.20;10.35;;;;;14.90;102533.00;;;;5051726;28;20207;-77
2023/04/17 06:40:07;;;;;;;14.50;10.32;;;;;14.80;102539.00;;;;5049362;28;20199;-77
2023/04/17 06:42:35;;;;;;;17.02;11.15;;;;;14.90;102541.00;;;;5058562;28;20199;-77
2023/04/17 06:45:02;;;;;;;13.10;8.82;;;;;14.90;102541.00;;;;5063493;28;20203;-76
2023/04/17 06:47:29;;;;;;;16.00;10.80;;;;;14.90;102545.00;;;;5062058;28;20312;-76
2023/04/17 06:49:58;;;;;;;16.05;9.90;;;;;14.90;102545.00;;;;5049420;28;20211;-77
2023/04/17 06:52:27;;;;;;;15.23;10.35;;;;;15.00;102548.00;;;;5048606;28;20191;-77
2023/04/17 06:54:55;;;;;;;15.25;10.63;;;;;15.00;102553.00;;;;5048602;28;20668;-76
2023/04/17 06:57:22;;;;;;;16.15;10.77;;;;;15.00;102557.00;;;;5053877;28;20207;-77
2023/04/17 06:59:49;;;;;;;18.98;10.80;;;;;15.00;102560.00;;;;5051496;28;20209;-77
2023/04/17 07:02:17;;;;;;;17.35;10.45;;;;;15.00;102559.00;;;;5066109;28;20610;-77
2023/04/17 07:04:44;;;;;;;15.68;10.43;;;;;15.00;102559.00;;;;5068526;28;20325;-76
2023/04/17 07:07:12;;;;;;;16.08;11.02;;;;;15.00;102556.00;;;;5063875;28;20195;-77
2023/04/17 07:09:41;;;;;;;15.32;10.85;;;;;14.90;102563.00;;;;5049926;28;20192;-77
2023/04/17 07:12:09;;;;;;;15.07;10.93;;;;;14.90;102562.00;;;;5050645;28;20223;-76
2023/04/17 07:14:37;;;;;;;19.77;12.13;;;;;14.90;102568.00;;;;5048197;28;20203;-77
2023/04/17 07:17:04;;;;;;;18.55;12.38;;;;;15.00;102576.00;;;;5051561;28;20296;-77
2023/04/17 07:19:32;;;;;;;22.92;11.95;;;;;15.00;102574.00;;;;5065042;28;20199;-77
2023/04/17 07:21:59;;;;;;;17.23;10.57;;;;;15.00;102572.00;;;;5063621;28;20195;-77
2023/04/17 07:24:26;;;;;;;15.68;10.68;;;;;15.00;102583.00;;;;5048546;28;20234;-77
2023/04/17 07:26:55;;;;;;;16.00;10.60;;;;;15.00;102581.00;;;;5048942;28;20202;-77
2023/04/17 07:29:22;;;;;;;18.08;11.15;;;;;15.00;102581.00;;;;5066230;28;20222;-77
2023/04/17 07:31:50;;;;;;;17.17;11.93;;;;;15.00;102579.00;;;;5060285;28;20195;-76
2023/04/17 07:34:17;;;;;;;18.88;11.60;;;;;15.00;102584.00;;;;5049621;28;20208;-77
2023/04/17 07:36:46;;;;;;;17.52;11.63;;;;;15.00;102579.00;;;;5051449;28;20202;-77
2023/04/17 07:39:13;;;;;;;18.88;11.38;;;;;15.00;102591.00;;;;5053651;28;20659;-77
2023/04/17 07:41:40;;;;;;;16.60;10.52;;;;;15.00;102577.00;;;;5064789;28;20191;-77
2023/04/17 07:44:09;;;;;;;18.65;11.02;;;;;15.00;102590.00;;;;5056287;28;20223;-77
2023/04/17 07:46:36;;;;;;;18.92;12.45;;;;;15.00;102584.00;;;;5057196;28;20191;-77
2023/04/17 07:49:04;;;;;;;19.10;10.68;;;;;15.10;102579.00;;;;5048343;28;20606;-77
2023/04/17 07:51:31;;;;;;;17.25;11.05;;;;;15.10;102577.00;;;;5048538;28;20948;-77
2023/04/17 07:54:00;;;;;;;17.88;12.13;;;;;15.10;102581.00;;;;5047648;28;20692;-77
2023/04/17 07:56:27;;;;;;;15.40;11.43;;;;;15.20;102577.00;;;;5060578;28;20241;-77
2023/04/17 07:58:55;;;;;;;22.75;10.40;;;;;15.20;102584.00;;;;5061286;28;20875;-77
2023/04/17 08:01:23;;;;;;;15.90;11.20;;;;;15.30;102588.00;;;;5056844;28;20203;-77
2023/04/17 08:03:51;;;;;;;18.73;10.45;;;;;15.30;102587.00;;;;5054368;28;20218;-77
2023/04/17 08:06:18;;;;;;;15.68;10.63;;;;;15.30;102591.00;;;;5067634;28;20238;-77
2023/04/17 08:08:46;;;;;;;18.00;11.13;;;;;15.40;102590.00;;;;5057032;28;20203;-77
2023/04/17 08:11:14;;;;;;;17.90;11.55;;;;;15.40;102581.00;;;;5051928;28;20209;-77
2023/04/17 08:13:41;;;;;;;19.30;12.48;;;;;15.50;102588.00;;;;5049504;28;20195;-75
2023/04/17 08:16:09;;;;;;;17.52;11.63;;;;;15.50;102588.00;;;;5047817;28;20227;-76
2023/04/17 08:18:38;;;;;;;17.63;11.65;;;;;15.50;102598.00;;;;5047026;28;20235;-75
2023/04/17 08:21:06;;;;;;;15.38;11.40;;;;;15.50;102605.00;;;;5047512;28;20219;-76
2023/04/17 08:23:33;;;;;;;16.58;10.93;;;;;15.50;102598.00;;;;5048387;28;20235;-76
2023/04/17 08:26:00;;;;;;;16.92;11.57;;;;;15.60;102593.00;;;;5060516;28;20210;-76
2023/04/17 08:28:28;;;;;;;15.50;10.45;;;;;15.70;102586.00;;;;5067538;28;20209;-76
2023/04/17 08:30:55;;;;;;;15.48;10.77;;;;;15.80;102598.00;;;;5067124;28;20226;-76
2023/04/17 08:33:23;;;;;;;17.02;10.45;;;;;15.90;102595.00;;;;5050084;28;20199;-77
2023/04/17 08:35:52;;;;;;;13.85;10.13;;;;;15.90;102592.00;;;;5048910;28;20192;-77
2023/04/17 08:38:19;;;;;;;14.50;10.57;;;;;16.00;102594.00;;;;5063334;28;20192;-75
2023/04/17 08:40:50;;;;;;;14.70;10.32;;;;;16.00;102594.00;;;;5058958;28;20203;-76
2023/04/17 08:43:19;;;;;;;15.82;10.90;;;;;16.00;102590.00;;;;5051078;28;20222;-76
2023/04/17 08:45:52;;;;;;;15.55;10.93;;;;;16.00;102596.00;;;;5053495;28;20277;-77
2023/04/17 08:48:20;;;;;;;18.17;10.65;;;;;16.00;102590.00;;;;5058671;28;20568;-76
2023/04/17 08:50:48;;;;;;;15.55;10.63;;;;;16.10;102596.00;;;;5049102;28;20515;-77
2023/04/17 08:53:17;;;;;;;14.07;10.82;;;;;16.10;102600.00;;;;5064539;28;20585;-76
2023/04/17 08:55:45;;;;;;;19.08;11.65;;;;;16.10;102603.00;;;;5055656;28;20206;-77
2023/04/17 08:58:13;;;;;;;14.85;11.02;;;;;16.20;102596.00;;;;5051770;28;20211;-76
2023/04/17 09:00:42;;;;;;;18.02;12.02;;;;;16.20;102599.00;;;;5051622;28;20247;-76
2023/04/17 09:03:11;;;;;;;16.33;11.57;;;;;16.30;102607.00;;;;5051900;28;20211;-77
2023/04/17 09:05:40;;;;;;;17.48;11.55;;;;;16.40;102605.00;;;;5057544;28;20580;-77
2023/04/17 09:08:13;;;;;;;16.65;11.65;;;;;16.40;102601.00;;;;5052826;28;20199;-76
2023/04/17 09:10:44;;;;;;;16.05;11.75;;;;;16.40;102608.00;;;;5062941;28;20211;-77
2023/04/17 09:13:14;;;;;;;18.65;10.60;;;;;16.50;102604.00;;;;5049671;28;20203;-76
2023/04/17 09:15:42;;;;;;;17.20;11.70;;;;;16.50;102611.00;;;;5060470;28;20226;-76
2023/04/17 09:18:25;;;;;;;18.58;13.02;;;;;16.50;102610.00;;;;5070081;28;20190;-77
2023/04/17 09:20:52;;;;;;;18.10;12.93;;;;;16.70;102616.00;;;;5050069;28;20203;-77
2023/04/17 09:23:21;;;;;;;16.85;11.73;;;;;16.80;102610.00;;;;5050427;28;20191;-77
2023/04/17 09:26:06;;;;;;;15.43;10.75;;;;;16.80;102613.00;;;;5051357;28;20790;-77
2023/04/17 09:28:35;;;;;;;15.15;11.57;;;;;17.00;102606.00;;;;5059370;28;20378;-76
2023/04/17 09:31:06;;;;;;;17.10;12.00;;;;;17.20;102607.00;;;;5057586;28;20589;-77
2023/04/17 09:33:33;;;;;;;17.30;11.45;;;;;17.30;102613.00;;;;5050340;28;20209;-77
2023/04/17 09:36:21;;;;;;;18.23;12.30;;;;;17.30;102606.00;;;;5050615;28;20592;-77
2023/04/17 09:38:48;;;;;;;16.75;11.73;;;;;17.50;102611.00;;;;5062757;28;20195;-77
2023/04/17 09:41:25;;;;;;;17.27;11.55;;;;;17.60;102609.00;;;;5054971;28;20285;-77
2023/04/17 09:43:54;;;;;;;17.60;11.77;;;;;17.80;102614.00;;;;5063963;28;20693;-77
2023/04/17 09:46:36;;;;;;;15.82;11.35;;;;;17.90;102614.00;;;;5061073;28;20237;-76
2023/04/17 09:49:09;;;;;;;17.23;11.82;;;;;18.00;102611.00;;;;5066923;28;20207;-76
2023/04/17 09:51:37;;;;;;;15.52;11.35;;;;;18.20;102616.00;;;;5070055;28;20675;-77
2023/04/17 09:54:06;;;;;;;16.25;11.70;;;;;18.30;102611.00;;;;5057449;28;20196;-77
2023/04/17 09:56:36;;;;;;;17.83;13.52;;;;;18.40;102614.00;;;;5053025;28;20611;-77
2023/04/17 09:59:06;;;;;;;15.02;12.07;;;;;18.50;102609.00;;;;5063102;28;20214;-77
2023/04/17 10:01:34;;;;;;;15.90;11.90;;;;;18.50;102614.00;;;;5064292;28;20194;-78
2023/04/17 10:04:03;;;;;;;19.38;12.20;;;;;18.70;102609.00;;;;5060565;28;20219;-77
2023/04/17 10:06:32;;;;;;;15.10;11.32;;;;;18.80;102602.00;;;;5061570;28;20289;-77
2023/04/17 10:08:59;;;;;;;16.83;11.48;;;;;19.00;102593.00;;;;5065687;28;20683;-77
2023/04/17 10:11:30;;;;;;;15.65;10.95;;;;;19.20;102598.00;;;;5064919;28;20282;-77
2023/04/17 10:14:08;;;;;;;14.50;11.63;;;;;19.40;102605.00;;;;5051262;28;20203;-77
2023/04/17 10:16:36;;;;;;;16.10;11.85;;;;;19.60;102609.00;;;;5066060;28;20223;-78
2023/04/17 10:19:26;;;;;;;14.70;11.85;;;;;19.70;102612.00;;;;5056157;28;20685;-78
2023/04/17 10:22:32;;;;;;;15.07;11.95;;;;;19.80;102607.00;;;;5049295;28;20195;-77
2023/04/17 10:25:20;;;;;;;15.27;12.23;;;;;20.00;102610.00;;;;5052697;28;20231;-78
2023/04/17 10:27:58;;;;;;;12.95;10.75;;;;;20.20;102610.00;;;;5049306;28;20338;-78
2023/04/17 10:30:52;;;;;;;18.55;12.27;;;;;20.30;102604.00;;;;5058175;28;20304;-77
2023/04/17 10:33:25;;;;;;;15.10;11.35;;;;;20.60;102607.00;;;;5065491;28;20199;-77
2023/04/17 10:35:53;;;;;;;15.55;11.68;;;;;20.80;102605.00;;;;5057348;28;20206;-79
2023/04/17 10:38:34;;;;;;;16.23;11.77;;;;;20.90;102595.00;;;;5051396;28;20207;-78
2023/04/17 10:41:03;;;;;;;16.27;11.93;;;;;21.10;102599.00;;;;5057632;28;20199;-78
2023/04/17 10:43:31;;;;;;;14.85;11.80;;;;;21.20;102607.00;;;;5051459;28;20203;-77
2023/04/17 10:46:02;;;;;;;15.23;12.05;;;;;21.30;102602.00;;;;5051432;28;20708;-78
2023/04/17 10:48:34;;;;;;;13.68;10.98;;;;;21.40;102608.00;;;;5049711;28;20623;-78
2023/04/17 10:51:22;;;;;;;14.48;11.05;;;;;21.50;102605.00;;;;5068033;28;20191;-78
2023/04/17 10:53:50;;;;;;;14.98;11.10;;;;;21.60;102612.00;;;;5068279;28;20218;-78
2023/04/17 10:56:19;;;;;;;15.07;12.13;;;;;21.60;102606.00;;;;5051366;28;20257;-78
2023/04/17 10:58:58;;;;;;;14.25;10.82;;;;;21.60;102607.00;;;;5053035;28;20191;-77
2023/04/17 11:01:29;;;;;;;15.13;11.80;;;;;21.70;102601.00;;;;5060137;28;20448;-78
2023/04/17 11:03:58;;;;;;;17.25;11.32;;;;;21.70;102600.00;;;;5060013;28;20231;-78
2023/04/17 11:06:28;;;;;;;12.93;11.23;;;;;21.70;102600.00;;;;5055788;28;20207;-78
2023/04/17 11:08:56;;;;;;;14.75;11.13;;;;;21.80;102596.00;;;;5064797;28;20645;-78
2023/04/17 11:11:24;;;;;;;14.82;11.70;;;;;21.90;102590.00;;;;5068333;28;20202;-78
2023/04/17 11:13:51;;;;;;;14.32;11.27;;;;;21.90;102593.00;;;;5050475;28;20199;-78
2023/04/17 11:16:19;;;;;;;15.57;12.45;;;;;21.90;102587.00;;;;5066248;28;20215;-78
2023/04/17 11:18:50;;;;;;;14.48;11.20;;;;;21.90;102593.00;;;;5047968;28;20204;-78
2023/04/17 11:21:18;;;;;;;16.60;11.60;;;;;21.90;102584.00;;;;5049366;28;20191;-78
2023/04/17 11:23:51;;;;;;;13.98;11.23;;;;;22.00;102589.00;;;;5053016;28;20218;-78
2023/04/17 11:26:19;;;;;;;16.20;12.13;;;;;22.10;102589.00;;;;5056621;28;20202;-78
2023/04/17 11:28:46;;;;;;;20.27;11.80;;;;;22.20;102589.00;;;;5052462;28;20206;-78
2023/04/17 11:31:14;;;;;;;14.68;11.77;;;;;22.30;102581.00;;;;5060879;28;20194;-78
2023/04/17 11:33:42;;;;;;;14.77;11.23;;;;;22.30;102587.00;;;;5056615;28;20290;-79
2023/04/17 11:36:11;;;;;;;15.13;11.77;;;;;22.30;102583.00;;;;5048595;28;20206;-78
2023/04/17 11:38:47;;;;;;;13.48;10.63;;;;;22.30;102588.00;;;;5057427;28;20195;-78
2023/04/17 11:41:15;;;;;;;12.98;11.35;;;;;22.40;102589.00;;;;5057240;28;20916;-78
2023/04/17 11:43:43;;;;;;;15.18;10.88;;;;;22.40;102592.00;;;;5063755;28;20290;-78
2023/04/17 11:46:10;;;;;;;16.73;11.93;;;;;22.40;102587.00;;;;5059005;28;21283;-78
2023/04/17 11:48:38;;;;;;;18.20;11.38;;;;;22.50;102583.00;;;;5061873;28;20202;-78
2023/04/17 11:51:06;;;;;;;13.05;10.40;;;;;22.50;102579.00;;;;5061242;28;20218;-79
2023/04/17 11:53:36;;;;;;;15.55;11.38;;;;;22.50;102572.00;;;;5058521;28;20209;-80
2023/04/17 11:56:14;;;;;;;13.48;10.32;;;;;22.50;102566.00;;;;5064222;28;20203;-78
2023/04/17 11:58:49;;;;;;;14.05;10.43;;;;;22.60;102568.00;;;;5067653;28;20191;-78
2023/04/17 12:01:17;;;;;;;13.65;10.60;;;;;22.70;102573.00;;;;5056912;28;20277;-78